sensor_id;sensor_type;location;lat;lon;timestamp;P1;P2;P0
73687;PMS7003;62257;48.376;-4.378;2022-09-13T00:00:39;8.25;7.50;6.75
73687;PMS7003;62257;48.376;-4.378;2022-09-13T00:03:06;7.75;7.00;5.50
73687;PMS7003;62257;48.376;-4.378;2022-09-13T00:05:32;8.00;7.00;6.00
73687;PMS7003;62257;48.376;-4.378;2022-09-13T00:07:59;7.25;7.25;7.00
73687;PMS7003;62257;48.376;-4.378;2022-09-13T00:10:25;10.00;7.25;5.75
73687;PMS7003;62257;48.376;-4.378;2022-09-13T00:12:50;7.25;6.25;5.25
73687;PMS7003;62257;48.376;-4.378;2022-09-13T00:15:17;7.25;7.25;6.00
73687;PMS7003;62257;48.376;-4.378;2022-09-13T00:17:42;6.00;6.00;5.00
73687;PMS7003;62257;48.376;-4.378;2022-09-13T00:20:08;11.75;7.00;5.50
73687;PMS7003;62257;48.376;-4.378;2022-09-13T00:22:34;7.00;7.00;6.25
73687;PMS7003;62257;48.376;-4.378;2022-09-13T00:25:00;8.75;6.50;6.00
73687;PMS7003;62257;48.376;-4.378;2022-09-13T00:27:26;10.75;8.00;7.50
73687;PMS7003;62257;48.376;-4.378;2022-09-13T00:29:51;10.75;9.25;8.00
73687;PMS7003;62257;48.376;-4.378;2022-09-13T00:32:16;6.25;6.25;6.00
73687;PMS7003;62257;48.376;-4.378;2022-09-13T00:34:42;8.50;7.00;6.25
73687;PMS7003;62257;48.376;-4.378;2022-09-13T00:37:07;9.75;7.50;6.00
73687;PMS7003;62257;48.376;-4.378;2022-09-13T00:39:33;8.00;7.25;7.00
73687;PMS7003;62257;48.376;-4.378;2022-09-13T00:41:59;7.75;7.75;7.00
73687;PMS7003;62257;48.376;-4.378;2022-09-13T00:45:11;8.00;7.00;6.00
73687;PMS7003;62257;48.376;-4.378;2022-09-13T00:47:27;9.00;8.50;6.50
73687;PMS7003;62257;48.376;-4.378;2022-09-13T00:53:04;10.75;8.00;7.25
73687;PMS7003;62257;48.376;-4.378;2022-09-13T00:55:41;9.75;7.00;6.50
73687;PMS7003;62257;48.376;-4.378;2022-09-13T00:58:19;8.00;8.00;7.50
73687;PMS7003;62257;48.376;-4.378;2022-09-13T01:00:47;7.75;6.50;5.75
73687;PMS7003;62257;48.376;-4.378;2022-09-13T01:03:14;9.25;6.50;6.00
73687;PMS7003;62257;48.376;-4.378;2022-09-13T01:05:43;9.50;8.75;7.00
73687;PMS7003;62257;48.376;-4.378;2022-09-13T01:08:11;9.50;7.50;6.50
73687;PMS7003;62257;48.376;-4.378;2022-09-13T01:10:46;8.75;7.50;6.75
73687;PMS7003;62257;48.376;-4.378;2022-09-13T01:13:23;9.50;7.50;6.25
73687;PMS7003;62257;48.376;-4.378;2022-09-13T01:15:51;7.75;7.75;7.00
73687;PMS7003;62257;48.376;-4.378;2022-09-13T01:18:17;7.50;7.50;6.75
73687;PMS7003;62257;48.376;-4.378;2022-09-13T01:23:47;7.50;7.50;6.50
73687;PMS7003;62257;48.376;-4.378;2022-09-13T01:38:18;7.00;6.75;5.50
73687;PMS7003;62257;48.376;-4.378;2022-09-13T01:52:01;10.00;7.25;6.50
73687;PMS7003;62257;48.376;-4.378;2022-09-13T01:55:00;8.00;8.00;6.75
73687;PMS7003;62257;48.376;-4.378;2022-09-13T02:00:07;7.50;7.50;6.75
73687;PMS7003;62257;48.376;-4.378;2022-09-13T02:07:55;8.00;7.75;6.75
73687;PMS7003;62257;48.376;-4.378;2022-09-13T02:10:26;6.25;6.25;6.00
73687;PMS7003;62257;48.376;-4.378;2022-09-13T02:12:58;9.75;7.50;7.00
73687;PMS7003;62257;48.376;-4.378;2022-09-13T02:15:28;6.75;6.75;6.25
73687;PMS7003;62257;48.376;-4.378;2022-09-13T02:18:03;9.75;7.00;7.00
73687;PMS7003;62257;48.376;-4.378;2022-09-13T02:20:35;8.50;7.50;6.75
73687;PMS7003;62257;48.376;-4.378;2022-09-13T02:23:04;10.50;7.00;6.25
73687;PMS7003;62257;48.376;-4.378;2022-09-13T02:25:39;10.25;9.25;8.00
73687;PMS7003;62257;48.376;-4.378;2022-09-13T02:28:07;9.25;9.25;7.75
73687;PMS7003;62257;48.376;-4.378;2022-09-13T02:30:36;10.00;10.00;8.00
73687;PMS7003;62257;48.376;-4.378;2022-09-13T02:35:55;10.75;9.75;8.00
73687;PMS7003;62257;48.376;-4.378;2022-09-13T02:38:29;9.75;8.50;6.00
73687;PMS7003;62257;48.376;-4.378;2022-09-13T02:40:59;11.00;11.00;9.75
73687;PMS7003;62257;48.376;-4.378;2022-09-13T02:43:38;11.25;10.50;9.25
73687;PMS7003;62257;48.376;-4.378;2022-09-13T02:48:49;9.75;8.50;7.75
73687;PMS7003;62257;48.376;-4.378;2022-09-13T02:51:34;11.50;8.25;6.75
73687;PMS7003;62257;48.376;-4.378;2022-09-13T02:56:51;10.00;10.00;8.00
73687;PMS7003;62257;48.376;-4.378;2022-09-13T02:59:29;10.25;9.00;7.00
73687;PMS7003;62257;48.376;-4.378;2022-09-13T03:02:02;10.50;10.00;7.25
73687;PMS7003;62257;48.376;-4.378;2022-09-13T03:04:31;10.00;10.00;7.25
73687;PMS7003;62257;48.376;-4.378;2022-09-13T03:06:57;12.25;10.75;9.25
73687;PMS7003;62257;48.376;-4.378;2022-09-13T03:09:22;12.50;9.50;9.00
73687;PMS7003;62257;48.376;-4.378;2022-09-13T03:22:31;11.25;10.00;9.00
73687;PMS7003;62257;48.376;-4.378;2022-09-13T03:31:05;8.50;8.50;7.25
73687;PMS7003;62257;48.376;-4.378;2022-09-13T03:33:43;10.25;9.25;8.00
73687;PMS7003;62257;48.376;-4.378;2022-09-13T03:38:42;9.00;9.00;7.00
73687;PMS7003;62257;48.376;-4.378;2022-09-13T03:41:18;8.00;8.00;7.00
73687;PMS7003;62257;48.376;-4.378;2022-09-13T03:43:49;7.25;7.00;6.00
73687;PMS7003;62257;48.376;-4.378;2022-09-13T03:49:05;11.25;9.75;8.00
73687;PMS7003;62257;48.376;-4.378;2022-09-13T03:51:34;11.25;10.00;8.25
73687;PMS7003;62257;48.376;-4.378;2022-09-13T03:54:02;9.75;9.75;8.00
73687;PMS7003;62257;48.376;-4.378;2022-09-13T03:56:30;10.50;8.25;6.00
73687;PMS7003;62257;48.376;-4.378;2022-09-13T03:58:56;10.00;8.00;6.25
73687;PMS7003;62257;48.376;-4.378;2022-09-13T04:01:22;8.00;8.00;6.00
73687;PMS7003;62257;48.376;-4.378;2022-09-13T04:03:48;7.50;7.50;6.00
73687;PMS7003;62257;48.376;-4.378;2022-09-13T04:06:14;11.50;8.75;7.00
73687;PMS7003;62257;48.376;-4.378;2022-09-13T04:08:40;12.75;10.00;7.75
73687;PMS7003;62257;48.376;-4.378;2022-09-13T04:11:05;10.75;8.00;6.75
73687;PMS7003;62257;48.376;-4.378;2022-09-13T04:13:31;8.25;6.50;6.00
73687;PMS7003;62257;48.376;-4.378;2022-09-13T04:16:00;7.50;6.50;5.75
73687;PMS7003;62257;48.376;-4.378;2022-09-13T04:18:27;7.00;7.00;6.00
73687;PMS7003;62257;48.376;-4.378;2022-09-13T04:20:53;12.50;7.75;6.00
73687;PMS7003;62257;48.376;-4.378;2022-09-13T04:23:20;12.00;8.00;7.00
73687;PMS7003;62257;48.376;-4.378;2022-09-13T04:25:46;9.75;8.50;6.75
73687;PMS7003;62257;48.376;-4.378;2022-09-13T04:28:11;7.75;7.75;6.00
73687;PMS7003;62257;48.376;-4.378;2022-09-13T04:30:37;6.25;6.25;5.50
73687;PMS7003;62257;48.376;-4.378;2022-09-13T04:33:02;8.50;8.50;6.00
73687;PMS7003;62257;48.376;-4.378;2022-09-13T04:35:28;6.25;4.50;4.00
73687;PMS7003;62257;48.376;-4.378;2022-09-13T04:37:56;8.75;7.75;6.00
73687;PMS7003;62257;48.376;-4.378;2022-09-13T04:40:24;7.00;6.00;5.50
73687;PMS7003;62257;48.376;-4.378;2022-09-13T04:42:50;8.75;6.25;5.50
73687;PMS7003;62257;48.376;-4.378;2022-09-13T04:45:15;9.25;8.00;6.00
73687;PMS7003;62257;48.376;-4.378;2022-09-13T04:47:41;7.00;7.00;5.75
73687;PMS7003;62257;48.376;-4.378;2022-09-13T04:50:07;5.50;5.50;4.75
73687;PMS7003;62257;48.376;-4.378;2022-09-13T04:52:33;6.25;6.25;5.25
73687;PMS7003;62257;48.376;-4.378;2022-09-13T04:54:59;8.50;8.00;6.00
73687;PMS7003;62257;48.376;-4.378;2022-09-13T04:57:29;5.50;5.50;4.50
73687;PMS7003;62257;48.376;-4.378;2022-09-13T04:59:54;5.00;4.25;2.25
73687;PMS7003;62257;48.376;-4.378;2022-09-13T05:02:19;8.50;7.75;6.00
73687;PMS7003;62257;48.376;-4.378;2022-09-13T05:04:45;9.25;7.00;5.75
73687;PMS7003;62257;48.376;-4.378;2022-09-13T05:07:10;6.00;6.00;5.25
73687;PMS7003;62257;48.376;-4.378;2022-09-13T05:09:36;8.00;7.00;4.25
73687;PMS7003;62257;48.376;-4.378;2022-09-13T05:12:01;9.75;6.00;5.00
73687;PMS7003;62257;48.376;-4.378;2022-09-13T05:14:27;10.00;7.00;6.00
73687;PMS7003;62257;48.376;-4.378;2022-09-13T05:16:52;7.00;5.75;4.25
73687;PMS7003;62257;48.376;-4.378;2022-09-13T05:19:18;4.50;4.50;3.75
73687;PMS7003;62257;48.376;-4.378;2022-09-13T05:21:43;8.25;5.25;4.25
73687;PMS7003;62257;48.376;-4.378;2022-09-13T05:24:09;5.50;5.50;4.50
73687;PMS7003;62257;48.376;-4.378;2022-09-13T05:26:35;5.50;5.00;4.25
73687;PMS7003;62257;48.376;-4.378;2022-09-13T05:29:00;6.75;5.00;5.00
73687;PMS7003;62257;48.376;-4.378;2022-09-13T05:31:32;5.25;5.25;4.75
73687;PMS7003;62257;48.376;-4.378;2022-09-13T05:34:00;5.00;5.00;4.00
73687;PMS7003;62257;48.376;-4.378;2022-09-13T05:36:28;7.00;6.50;5.50
73687;PMS7003;62257;48.376;-4.378;2022-09-13T05:38:54;7.50;4.25;3.00
73687;PMS7003;62257;48.376;-4.378;2022-09-13T05:41:21;6.00;5.75;5.00
73687;PMS7003;62257;48.376;-4.378;2022-09-13T05:43:46;6.75;5.75;5.00
73687;PMS7003;62257;48.376;-4.378;2022-09-13T05:46:16;7.50;6.00;4.00
73687;PMS7003;62257;48.376;-4.378;2022-09-13T05:48:43;9.50;7.00;5.50
73687;PMS7003;62257;48.376;-4.378;2022-09-13T05:53:39;6.75;6.00;4.25
73687;PMS7003;62257;48.376;-4.378;2022-09-13T05:56:07;7.00;5.25;4.25
73687;PMS7003;62257;48.376;-4.378;2022-09-13T05:58:33;6.50;5.25;4.50
73687;PMS7003;62257;48.376;-4.378;2022-09-13T06:01:03;8.25;5.00;4.00
73687;PMS7003;62257;48.376;-4.378;2022-09-13T06:03:29;9.25;5.75;4.25
73687;PMS7003;62257;48.376;-4.378;2022-09-13T06:05:55;6.25;5.00;4.00
73687;PMS7003;62257;48.376;-4.378;2022-09-13T06:08:22;7.00;6.00;4.00
73687;PMS7003;62257;48.376;-4.378;2022-09-13T06:10:55;7.00;6.00;4.25
73687;PMS7003;62257;48.376;-4.378;2022-09-13T06:13:21;5.00;4.00;3.00
73687;PMS7003;62257;48.376;-4.378;2022-09-13T06:15:47;6.50;5.00;4.00
73687;PMS7003;62257;48.376;-4.378;2022-09-13T06:18:13;6.50;4.75;3.50
73687;PMS7003;62257;48.376;-4.378;2022-09-13T06:20:38;7.50;6.25;5.00
73687;PMS7003;62257;48.376;-4.378;2022-09-13T06:23:04;9.25;7.00;4.50
73687;PMS7003;62257;48.376;-4.378;2022-09-13T06:25:29;5.00;5.00;4.00
73687;PMS7003;62257;48.376;-4.378;2022-09-13T06:27:55;8.00;5.50;5.00
73687;PMS7003;62257;48.376;-4.378;2022-09-13T06:30:20;5.25;4.75;3.25
73687;PMS7003;62257;48.376;-4.378;2022-09-13T06:32:46;4.50;3.75;3.25
73687;PMS7003;62257;48.376;-4.378;2022-09-13T06:35:11;7.25;5.00;4.00
73687;PMS7003;62257;48.376;-4.378;2022-09-13T06:37:36;4.25;4.25;4.00
73687;PMS7003;62257;48.376;-4.378;2022-09-13T06:40:02;6.50;6.50;5.00
73687;PMS7003;62257;48.376;-4.378;2022-09-13T06:42:29;5.75;4.50;3.25
73687;PMS7003;62257;48.376;-4.378;2022-09-13T06:44:54;4.50;4.00;3.00
73687;PMS7003;62257;48.376;-4.378;2022-09-13T06:47:19;7.00;5.00;4.00
73687;PMS7003;62257;48.376;-4.378;2022-09-13T06:49:45;5.00;5.00;4.00
73687;PMS7003;62257;48.376;-4.378;2022-09-13T06:52:10;8.50;6.00;4.75
73687;PMS7003;62257;48.376;-4.378;2022-09-13T06:54:36;9.75;4.25;3.25
73687;PMS7003;62257;48.376;-4.378;2022-09-13T06:57:01;5.00;4.25;3.75
73687;PMS7003;62257;48.376;-4.378;2022-09-13T06:59:27;7.00;5.00;4.00
73687;PMS7003;62257;48.376;-4.378;2022-09-13T07:01:52;5.25;4.25;3.25
73687;PMS7003;62257;48.376;-4.378;2022-09-13T07:04:18;6.00;6.00;4.00
73687;PMS7003;62257;48.376;-4.378;2022-09-13T07:06:44;6.00;5.00;4.00
73687;PMS7003;62257;48.376;-4.378;2022-09-13T07:09:16;4.50;4.50;3.75
73687;PMS7003;62257;48.376;-4.378;2022-09-13T07:11:43;3.50;3.00;3.00
73687;PMS7003;62257;48.376;-4.378;2022-09-13T07:14:14;4.50;4.50;3.00
73687;PMS7003;62257;48.376;-4.378;2022-09-13T07:16:41;3.00;3.00;2.75
73687;PMS7003;62257;48.376;-4.378;2022-09-13T07:19:11;5.00;4.25;3.25
73687;PMS7003;62257;48.376;-4.378;2022-09-13T07:21:41;4.00;3.75;3.00
73687;PMS7003;62257;48.376;-4.378;2022-09-13T07:24:07;7.00;4.25;3.00
73687;PMS7003;62257;48.376;-4.378;2022-09-13T07:26:33;7.00;5.25;4.00
73687;PMS7003;62257;48.376;-4.378;2022-09-13T07:28:59;5.00;4.25;3.25
73687;PMS7003;62257;48.376;-4.378;2022-09-13T07:31:30;5.00;3.25;3.00
73687;PMS7003;62257;48.376;-4.378;2022-09-13T07:34:07;4.00;3.00;2.75
73687;PMS7003;62257;48.376;-4.378;2022-09-13T07:36:36;4.00;4.00;3.00
73687;PMS7003;62257;48.376;-4.378;2022-09-13T07:39:02;7.50;3.75;2.75
73687;PMS7003;62257;48.376;-4.378;2022-09-13T07:41:29;5.50;3.75;3.00
73687;PMS7003;62257;48.376;-4.378;2022-09-13T07:43:56;5.00;4.00;4.00
73687;PMS7003;62257;48.376;-4.378;2022-09-13T07:46:23;5.00;4.00;3.25
73687;PMS7003;62257;48.376;-4.378;2022-09-13T07:48:54;3.50;3.00;2.75
73687;PMS7003;62257;48.376;-4.378;2022-09-13T07:51:30;3.75;3.75;3.00
73687;PMS7003;62257;48.376;-4.378;2022-09-13T07:53:58;5.00;3.50;3.00
73687;PMS7003;62257;48.376;-4.378;2022-09-13T07:56:27;3.50;3.00;2.00
73687;PMS7003;62257;48.376;-4.378;2022-09-13T07:58:54;4.50;4.00;2.00
73687;PMS7003;62257;48.376;-4.378;2022-09-13T08:03:51;8.50;4.00;3.50
73687;PMS7003;62257;48.376;-4.378;2022-09-13T08:06:16;5.00;5.00;4.00
73687;PMS7003;62257;48.376;-4.378;2022-09-13T08:08:42;4.00;4.00;3.00
73687;PMS7003;62257;48.376;-4.378;2022-09-13T08:11:07;4.00;4.00;3.75
73687;PMS7003;62257;48.376;-4.378;2022-09-13T08:13:33;4.50;3.00;3.00
73687;PMS7003;62257;48.376;-4.378;2022-09-13T08:16:02;6.50;4.25;3.00
73687;PMS7003;62257;48.376;-4.378;2022-09-13T08:18:29;6.50;4.25;3.75
73687;PMS7003;62257;48.376;-4.378;2022-09-13T08:20:58;4.50;4.00;2.50
73687;PMS7003;62257;48.376;-4.378;2022-09-13T08:23:25;3.50;3.50;3.00
73687;PMS7003;62257;48.376;-4.378;2022-09-13T08:25:50;5.75;4.00;3.00
73687;PMS7003;62257;48.376;-4.378;2022-09-13T08:28:16;3.50;2.00;2.00
73687;PMS7003;62257;48.376;-4.378;2022-09-13T08:30:45;2.25;2.00;2.00
73687;PMS7003;62257;48.376;-4.378;2022-09-13T08:33:11;7.75;4.00;3.75
73687;PMS7003;62257;48.376;-4.378;2022-09-13T08:35:37;9.00;3.00;3.00
73687;PMS7003;62257;48.376;-4.378;2022-09-13T08:38:04;5.25;4.75;3.50
73687;PMS7003;62257;48.376;-4.378;2022-09-13T08:40:31;8.50;4.00;2.75
73687;PMS7003;62257;48.376;-4.378;2022-09-13T08:45:51;3.75;2.25;2.25
73687;PMS7003;62257;48.376;-4.378;2022-09-13T08:48:50;3.25;3.00;2.50
73687;PMS7003;62257;48.376;-4.378;2022-09-13T08:51:40;2.25;2.25;2.00
73687;PMS7003;62257;48.376;-4.378;2022-09-13T08:54:11;4.25;3.00;2.50
73687;PMS7003;62257;48.376;-4.378;2022-09-13T08:56:43;3.75;3.00;3.00
73687;PMS7003;62257;48.376;-4.378;2022-09-13T08:59:53;4.25;2.00;2.00
73687;PMS7003;62257;48.376;-4.378;2022-09-13T09:07:41;4.00;1.50;1.50
73687;PMS7003;62257;48.376;-4.378;2022-09-13T09:12:45;2.75;2.00;2.00
73687;PMS7003;62257;48.376;-4.378;2022-09-13T09:15:16;2.50;2.50;2.00
73687;PMS7003;62257;48.376;-4.378;2022-09-13T09:22:57;2.00;2.00;2.00
73687;PMS7003;62257;48.376;-4.378;2022-09-13T09:25:27;0.75;0.75;0.50
73687;PMS7003;62257;48.376;-4.378;2022-09-13T09:27:52;4.00;3.00;2.50
73687;PMS7003;62257;48.376;-4.378;2022-09-13T09:30:18;3.00;2.50;2.00
73687;PMS7003;62257;48.376;-4.378;2022-09-13T09:41:26;2.50;2.00;1.50
73687;PMS7003;62257;48.376;-4.378;2022-09-13T09:43:58;2.25;2.25;1.00
73687;PMS7003;62257;48.376;-4.378;2022-09-13T09:46:54;4.00;1.75;1.00
73687;PMS7003;62257;48.376;-4.378;2022-09-13T09:49:35;3.25;2.00;2.00
73687;PMS7003;62257;48.376;-4.378;2022-09-13T09:52:28;5.00;2.00;1.25
73687;PMS7003;62257;48.376;-4.378;2022-09-13T09:55:00;3.25;2.00;2.00
73687;PMS7003;62257;48.376;-4.378;2022-09-13T09:57:48;3.25;1.25;1.00
73687;PMS7003;62257;48.376;-4.378;2022-09-13T10:00:15;2.00;2.00;1.25
73687;PMS7003;62257;48.376;-4.378;2022-09-13T10:02:44;4.50;3.00;2.00
73687;PMS7003;62257;48.376;-4.378;2022-09-13T10:05:11;2.00;2.00;1.50
73687;PMS7003;62257;48.376;-4.378;2022-09-13T10:07:42;3.00;3.00;2.00
73687;PMS7003;62257;48.376;-4.378;2022-09-13T10:10:18;1.00;1.00;1.00
73687;PMS7003;62257;48.376;-4.378;2022-09-13T10:12:52;3.50;1.00;1.00
73687;PMS7003;62257;48.376;-4.378;2022-09-13T10:15:21;3.00;2.00;1.75
73687;PMS7003;62257;48.376;-4.378;2022-09-13T10:17:59;1.75;1.50;1.25
73687;PMS7003;62257;48.376;-4.378;2022-09-13T10:20:26;2.75;2.50;2.00
73687;PMS7003;62257;48.376;-4.378;2022-09-13T10:23:08;2.75;2.50;2.00
73687;PMS7003;62257;48.376;-4.378;2022-09-13T10:25:35;3.00;2.75;2.00
73687;PMS7003;62257;48.376;-4.378;2022-09-13T10:28:01;2.50;2.25;2.00
73687;PMS7003;62257;48.376;-4.378;2022-09-13T10:30:34;3.00;3.00;2.00
73687;PMS7003;62257;48.376;-4.378;2022-09-13T10:33:03;3.00;2.00;2.00
73687;PMS7003;62257;48.376;-4.378;2022-09-13T10:35:32;4.25;4.00;3.25
73687;PMS7003;62257;48.376;-4.378;2022-09-13T10:37:58;4.00;4.00;3.00
73687;PMS7003;62257;48.376;-4.378;2022-09-13T10:42:58;5.50;4.00;3.00
73687;PMS7003;62257;48.376;-4.378;2022-09-13T10:45:27;4.75;3.00;2.75
73687;PMS7003;62257;48.376;-4.378;2022-09-13T10:48:08;5.25;3.00;2.00
73687;PMS7003;62257;48.376;-4.378;2022-09-13T10:50:38;4.25;3.00;2.50
73687;PMS7003;62257;48.376;-4.378;2022-09-13T10:53:04;4.00;2.25;2.00
73687;PMS7003;62257;48.376;-4.378;2022-09-13T10:56:01;4.25;3.25;3.00
73687;PMS7003;62257;48.376;-4.378;2022-09-13T10:58:27;5.00;2.00;1.75
73687;PMS7003;62257;48.376;-4.378;2022-09-13T11:01:00;3.00;3.00;2.00
73687;PMS7003;62257;48.376;-4.378;2022-09-13T11:15:46;5.25;4.00;4.00
73687;PMS7003;62257;48.376;-4.378;2022-09-13T11:23:53;1.50;1.50;1.25
73687;PMS7003;62257;48.376;-4.378;2022-09-13T11:26:27;3.00;3.00;2.75
73687;PMS7003;62257;48.376;-4.378;2022-09-13T11:52:02;3.50;3.50;3.00
73687;PMS7003;62257;48.376;-4.378;2022-09-13T11:57:18;5.00;4.00;3.50
73687;PMS7003;62257;48.376;-4.378;2022-09-13T11:59:53;4.67;3.67;3.67
73687;PMS7003;62257;48.376;-4.378;2022-09-13T12:05:04;4.25;3.25;3.00
73687;PMS7003;62257;48.376;-4.378;2022-09-13T12:07:42;3.25;2.75;2.00
73687;PMS7003;62257;48.376;-4.378;2022-09-13T12:13:03;3.00;3.00;3.00
73687;PMS7003;62257;48.376;-4.378;2022-09-13T12:15:41;3.67;3.00;2.00
73687;PMS7003;62257;48.376;-4.378;2022-09-13T12:18:18;6.00;4.25;3.00
73687;PMS7003;62257;48.376;-4.378;2022-09-13T12:20:59;2.00;2.00;2.00
73687;PMS7003;62257;48.376;-4.378;2022-09-13T12:23:32;3.33;1.00;1.00
73687;PMS7003;62257;48.376;-4.378;2022-09-13T12:29:02;3.50;3.00;2.50
73687;PMS7003;62257;48.376;-4.378;2022-09-13T12:31:29;3.00;3.00;3.00
73687;PMS7003;62257;48.376;-4.378;2022-09-13T12:33:56;3.50;2.75;2.00
73687;PMS7003;62257;48.376;-4.378;2022-09-13T12:44:35;5.00;3.00;3.00
73687;PMS7003;62257;48.376;-4.378;2022-09-13T12:47:39;3.75;3.75;3.00
73687;PMS7003;62257;48.376;-4.378;2022-09-13T12:58:41;4.50;3.00;2.25
73687;PMS7003;62257;48.376;-4.378;2022-09-13T13:01:29;6.00;4.25;4.00
73687;PMS7003;62257;48.376;-4.378;2022-09-13T13:09:23;6.50;2.75;2.00
73687;PMS7003;62257;48.376;-4.378;2022-09-13T13:11:54;5.50;3.75;3.00
73687;PMS7003;62257;48.376;-4.378;2022-09-13T13:25:52;4.00;3.00;2.50
73687;PMS7003;62257;48.376;-4.378;2022-09-13T13:31:35;2.50;2.00;2.00
73687;PMS7003;62257;48.376;-4.378;2022-09-13T13:41:58;5.00;3.00;2.50
73687;PMS7003;62257;48.376;-4.378;2022-09-13T13:59:53;1.50;1.50;1.50
73687;PMS7003;62257;48.376;-4.378;2022-09-13T14:02:42;2.75;2.50;2.00
73687;PMS7003;62257;48.376;-4.378;2022-09-13T14:13:48;5.75;3.75;3.25
73687;PMS7003;62257;48.376;-4.378;2022-09-13T14:16:47;5.00;3.25;3.00
73687;PMS7003;62257;48.376;-4.378;2022-09-13T14:19:39;3.00;2.00;1.50
73687;PMS7003;62257;48.376;-4.378;2022-09-13T14:24:47;2.67;2.67;2.00
73687;PMS7003;62257;48.376;-4.378;2022-09-13T14:27:16;4.00;3.00;3.00
73687;PMS7003;62257;48.376;-4.378;2022-09-13T14:30:03;6.00;3.00;3.00
73687;PMS7003;62257;48.376;-4.378;2022-09-13T14:32:43;5.50;3.00;3.00
73687;PMS7003;62257;48.376;-4.378;2022-09-13T14:38:10;5.00;4.00;3.00
73687;PMS7003;62257;48.376;-4.378;2022-09-13T14:40:35;4.00;3.25;3.25
73687;PMS7003;62257;48.376;-4.378;2022-09-13T14:43:04;5.75;5.75;5.00
73687;PMS7003;62257;48.376;-4.378;2022-09-13T14:45:42;5.00;3.75;3.25
73687;PMS7003;62257;48.376;-4.378;2022-09-13T14:56:58;9.00;4.75;4.25
73687;PMS7003;62257;48.376;-4.378;2022-09-13T15:02:15;8.50;7.00;6.00
73687;PMS7003;62257;48.376;-4.378;2022-09-13T15:04:51;6.50;5.75;5.50
73687;PMS7003;62257;48.376;-4.378;2022-09-13T15:07:22;6.75;6.75;6.00
73687;PMS7003;62257;48.376;-4.378;2022-09-13T15:09:57;5.50;5.25;4.50
73687;PMS7003;62257;48.376;-4.378;2022-09-13T15:12:32;9.00;7.75;6.00
73687;PMS7003;62257;48.376;-4.378;2022-09-13T15:17:51;9.00;7.50;6.25
73687;PMS7003;62257;48.376;-4.378;2022-09-13T15:20:18;10.50;8.75;7.00
73687;PMS7003;62257;48.376;-4.378;2022-09-13T15:22:44;10.00;9.75;8.00
73687;PMS7003;62257;48.376;-4.378;2022-09-13T15:25:21;10.50;10.50;8.50
73687;PMS7003;62257;48.376;-4.378;2022-09-13T15:27:50;13.50;10.25;8.50
73687;PMS7003;62257;48.376;-4.378;2022-09-13T15:33:02;14.00;12.00;8.75
73687;PMS7003;62257;48.376;-4.378;2022-09-13T15:35:30;13.00;12.00;9.25
73687;PMS7003;62257;48.376;-4.378;2022-09-13T15:38:01;13.25;13.25;9.50
73687;PMS7003;62257;48.376;-4.378;2022-09-13T15:40:42;14.00;12.50;10.25
73687;PMS7003;62257;48.376;-4.378;2022-09-13T15:43:09;13.75;10.75;9.00
73687;PMS7003;62257;48.376;-4.378;2022-09-13T15:45:35;14.25;12.00;9.00
73687;PMS7003;62257;48.376;-4.378;2022-09-13T15:48:00;16.00;13.25;10.00
73687;PMS7003;62257;48.376;-4.378;2022-09-13T15:50:27;14.50;13.25;10.50
73687;PMS7003;62257;48.376;-4.378;2022-09-13T15:52:56;16.25;14.25;10.75
73687;PMS7003;62257;48.376;-4.378;2022-09-13T15:55:23;11.50;10.50;7.00
73687;PMS7003;62257;48.376;-4.378;2022-09-13T15:57:49;14.50;13.00;10.00
73687;PMS7003;62257;48.376;-4.378;2022-09-13T16:00:16;13.25;11.50;8.75
73687;PMS7003;62257;48.376;-4.378;2022-09-13T16:02:50;17.50;16.25;12.00
73687;PMS7003;62257;48.376;-4.378;2022-09-13T16:05:15;16.75;15.25;12.00
73687;PMS7003;62257;48.376;-4.378;2022-09-13T16:07:41;15.00;11.25;9.00
73687;PMS7003;62257;48.376;-4.378;2022-09-13T16:10:18;15.00;13.00;11.75
73687;PMS7003;62257;48.376;-4.378;2022-09-13T16:12:46;15.75;14.50;11.25
73687;PMS7003;62257;48.376;-4.378;2022-09-13T16:15:11;18.00;16.00;12.25
73687;PMS7003;62257;48.376;-4.378;2022-09-13T16:17:37;16.00;14.25;11.00
73687;PMS7003;62257;48.376;-4.378;2022-09-13T16:20:04;14.75;14.75;12.00
73687;PMS7003;62257;48.376;-4.378;2022-09-13T16:22:32;19.50;17.50;13.25
73687;PMS7003;62257;48.376;-4.378;2022-09-13T16:24:57;16.75;15.75;12.50
73687;PMS7003;62257;48.376;-4.378;2022-09-13T16:27:23;14.00;14.00;11.25
73687;PMS7003;62257;48.376;-4.378;2022-09-13T16:29:50;17.25;16.00;13.50
73687;PMS7003;62257;48.376;-4.378;2022-09-13T16:32:17;18.00;17.00;14.00
73687;PMS7003;62257;48.376;-4.378;2022-09-13T16:34:42;20.25;17.75;14.00
73687;PMS7003;62257;48.376;-4.378;2022-09-13T16:37:09;20.00;18.00;15.25
73687;PMS7003;62257;48.376;-4.378;2022-09-13T16:39:38;20.25;17.50;13.00
73687;PMS7003;62257;48.376;-4.378;2022-09-13T16:42:04;18.25;18.00;13.00
73687;PMS7003;62257;48.376;-4.378;2022-09-13T16:44:29;11.50;10.25;8.75
73687;PMS7003;62257;48.376;-4.378;2022-09-13T16:46:55;11.00;8.00;7.00
73687;PMS7003;62257;48.376;-4.378;2022-09-13T16:49:20;5.00;5.00;4.00
73687;PMS7003;62257;48.376;-4.378;2022-09-13T16:51:46;9.00;7.50;5.50
73687;PMS7003;62257;48.376;-4.378;2022-09-13T16:54:11;7.75;6.75;5.75
73687;PMS7003;62257;48.376;-4.378;2022-09-13T16:56:37;9.00;6.25;5.50
73687;PMS7003;62257;48.376;-4.378;2022-09-13T16:59:02;2.00;2.00;2.00
73687;PMS7003;62257;48.376;-4.378;2022-09-13T17:01:28;11.00;8.75;6.75
73687;PMS7003;62257;48.376;-4.378;2022-09-13T17:03:54;7.75;6.50;6.25
73687;PMS7003;62257;48.376;-4.378;2022-09-13T17:06:20;9.50;9.50;8.25
73687;PMS7003;62257;48.376;-4.378;2022-09-13T17:08:51;8.00;7.50;6.25
73687;PMS7003;62257;48.376;-4.378;2022-09-13T17:11:19;8.00;7.25;5.75
73687;PMS7003;62257;48.376;-4.378;2022-09-13T17:13:46;8.00;8.00;7.00
73687;PMS7003;62257;48.376;-4.378;2022-09-13T17:18:48;8.00;8.00;7.00
73687;PMS7003;62257;48.376;-4.378;2022-09-13T17:21:14;6.50;6.50;5.75
73687;PMS7003;62257;48.376;-4.378;2022-09-13T17:23:39;7.25;6.25;5.00
73687;PMS7003;62257;48.376;-4.378;2022-09-13T17:26:05;10.25;8.50;7.00
73687;PMS7003;62257;48.376;-4.378;2022-09-13T17:28:30;6.25;6.25;5.25
73687;PMS7003;62257;48.376;-4.378;2022-09-13T17:30:55;7.00;5.50;5.00
73687;PMS7003;62257;48.376;-4.378;2022-09-13T17:33:21;6.75;6.75;6.25
73687;PMS7003;62257;48.376;-4.378;2022-09-13T17:35:46;11.00;9.00;7.25
73687;PMS7003;62257;48.376;-4.378;2022-09-13T17:38:22;7.75;7.75;7.00
73687;PMS7003;62257;48.376;-4.378;2022-09-13T17:40:56;13.00;10.25;7.25
73687;PMS7003;62257;48.376;-4.378;2022-09-13T17:43:23;11.75;10.50;9.50
73687;PMS7003;62257;48.376;-4.378;2022-09-13T17:45:48;14.00;13.25;10.25
73687;PMS7003;62257;48.376;-4.378;2022-09-13T17:48:13;14.50;11.25;9.00
73687;PMS7003;62257;48.376;-4.378;2022-09-13T17:50:39;8.00;7.25;7.00
73687;PMS7003;62257;48.376;-4.378;2022-09-13T17:53:04;11.75;9.00;8.00
73687;PMS7003;62257;48.376;-4.378;2022-09-13T17:55:30;7.25;7.25;6.00
73687;PMS7003;62257;48.376;-4.378;2022-09-13T17:57:56;9.75;8.75;7.75
73687;PMS7003;62257;48.376;-4.378;2022-09-13T18:00:21;8.25;8.00;7.00
73687;PMS7003;62257;48.376;-4.378;2022-09-13T18:02:46;15.50;14.50;10.25
73687;PMS7003;62257;48.376;-4.378;2022-09-13T18:05:12;11.00;10.25;8.00
73687;PMS7003;62257;48.376;-4.378;2022-09-13T18:07:38;15.50;14.25;11.25
73687;PMS7003;62257;48.376;-4.378;2022-09-13T18:10:03;13.75;11.75;9.50
73687;PMS7003;62257;48.376;-4.378;2022-09-13T18:12:31;14.25;13.00;10.25
73687;PMS7003;62257;48.376;-4.378;2022-09-13T18:14:56;12.75;9.50;9.00
73687;PMS7003;62257;48.376;-4.378;2022-09-13T18:17:22;10.00;9.50;8.00
73687;PMS7003;62257;48.376;-4.378;2022-09-13T18:19:47;9.00;8.00;6.25
73687;PMS7003;62257;48.376;-4.378;2022-09-13T18:22:13;10.00;8.00;7.00